createdAt,value
2022-08-23T00:01:33.981Z,18.79
2022-08-23T00:04:05.665Z,18.76
2022-08-23T00:06:32.016Z,18.73
2022-08-23T00:08:58.493Z,18.71
2022-08-23T00:11:29.567Z,18.70
2022-08-23T00:13:56.456Z,18.64
2022-08-23T00:16:24.146Z,18.61
2022-08-23T00:18:50.504Z,18.57
2022-08-23T00:21:17.022Z,18.50
2022-08-23T00:23:43.327Z,18.42
2022-08-23T00:26:09.990Z,18.35
2022-08-23T00:28:36.330Z,18.31
2022-08-23T00:31:03.287Z,18.27
2022-08-23T00:33:30.946Z,18.27
2022-08-23T00:35:57.256Z,18.22
2022-08-23T00:38:33.781Z,18.17
2022-08-23T00:41:02.176Z,18.13
2022-08-23T00:43:30.442Z,18.10
2022-08-23T00:46:02.500Z,18.08
2022-08-23T00:48:29.478Z,18.05
2022-08-23T00:51:01.119Z,17.98
2022-08-23T00:53:28.958Z,17.86
2022-08-23T00:55:57.933Z,17.78
2022-08-23T00:58:24.315Z,17.74
2022-08-23T01:00:52.208Z,17.71
2022-08-23T01:03:19.105Z,17.68
2022-08-23T01:05:50.964Z,17.68
2022-08-23T01:08:19.684Z,17.65
2022-08-23T01:10:49.535Z,17.59
2022-08-23T01:13:18.129Z,17.56
2022-08-23T01:15:46.443Z,17.55
2022-08-23T01:18:14.915Z,17.53
2022-08-23T01:20:43.112Z,17.50
2022-08-23T01:23:19.447Z,17.47
2022-08-23T01:25:45.794Z,17.43
2022-08-23T01:28:12.095Z,17.42
2022-08-23T01:30:40.725Z,17.38
2022-08-23T01:33:07.296Z,17.37
2022-08-23T01:35:36.270Z,17.37
2022-08-23T01:38:02.679Z,17.32
2022-08-23T01:40:30.498Z,17.29
2022-08-23T01:42:56.826Z,17.23
2022-08-23T01:45:23.373Z,17.18
2022-08-23T01:47:49.686Z,17.17
2022-08-23T01:50:16.070Z,17.13
2022-08-23T01:52:46.565Z,17.11
2022-08-23T01:55:14.041Z,17.08
2022-08-23T01:57:43.062Z,17.05
2022-08-23T02:00:15.075Z,17.04
2022-08-23T02:02:41.399Z,17.01
2022-08-23T02:05:08.262Z,17.01
2022-08-23T02:07:34.711Z,16.98
2022-08-23T02:10:01.294Z,16.92
2022-08-23T02:12:29.176Z,16.88
2022-08-23T02:14:56.831Z,16.84
2022-08-23T02:17:23.145Z,16.83
2022-08-23T02:19:49.464Z,16.80
2022-08-23T02:22:15.790Z,16.79
2022-08-23T02:24:43.486Z,16.79
2022-08-23T02:27:10.539Z,16.81
2022-08-23T02:29:39.454Z,16.83
2022-08-23T02:32:08.016Z,16.83
2022-08-23T02:34:36.056Z,16.84
2022-08-23T02:37:02.520Z,16.81
2022-08-23T02:39:29.063Z,16.77
2022-08-23T02:41:55.568Z,16.74
2022-08-23T02:44:21.942Z,16.69
2022-08-23T02:46:48.265Z,16.68
2022-08-23T02:49:16.736Z,16.66
2022-08-23T02:51:43.525Z,16.65
2022-08-23T02:54:09.861Z,16.59
2022-08-23T02:56:36.370Z,16.59
2022-08-23T02:59:03.131Z,16.59
2022-08-23T03:01:30.499Z,16.60
2022-08-23T03:03:57.325Z,16.60
2022-08-23T03:06:26.441Z,16.60
2022-08-23T03:08:53.071Z,16.58
2022-08-23T03:11:19.968Z,16.55
2022-08-23T03:13:46.291Z,16.55
2022-08-23T03:16:13.025Z,16.56
2022-08-23T03:18:39.796Z,16.56
2022-08-23T03:21:06.855Z,16.56
2022-08-23T03:23:35.695Z,16.54
2022-08-23T03:26:02.911Z,16.52
2022-08-23T03:28:29.670Z,16.47
2022-08-23T03:30:56.078Z,16.44
2022-08-23T03:33:22.979Z,16.40
2022-08-23T03:35:49.823Z,16.34
2022-08-23T03:38:16.785Z,16.32
2022-08-23T03:40:44.658Z,16.33
2022-08-23T03:43:11.098Z,16.35
2022-08-23T03:45:37.838Z,16.37
2022-08-23T03:48:04.535Z,16.42
2022-08-23T03:50:30.850Z,16.43
2022-08-23T03:52:57.178Z,16.43
2022-08-23T03:55:23.497Z,16.43
2022-08-23T03:57:51.163Z,16.44
2022-08-23T04:00:20.608Z,16.45
2022-08-23T04:02:48.797Z,16.48
2022-08-23T04:05:15.479Z,16.48
2022-08-23T04:07:41.890Z,16.51
2022-08-23T04:10:09.202Z,16.52
2022-08-23T04:12:35.855Z,16.55
2022-08-23T04:15:03.775Z,16.57
2022-08-23T04:17:32.410Z,16.57
2022-08-23T04:19:59.042Z,16.59
2022-08-23T04:22:25.351Z,16.60
2022-08-23T04:24:51.673Z,16.62
2022-08-23T04:27:18.002Z,16.62
2022-08-23T04:29:44.319Z,16.65
2022-08-23T04:32:12.096Z,16.67
2022-08-23T04:34:39.366Z,16.70
2022-08-23T04:37:09.328Z,16.70
2022-08-23T04:39:36.030Z,16.73
2022-08-23T04:42:13.126Z,16.74
2022-08-23T04:44:41.022Z,16.76
2022-08-23T04:47:07.315Z,16.78
2022-08-23T04:49:35.103Z,16.80
2022-08-23T04:52:01.442Z,16.84
2022-08-23T04:54:27.782Z,16.87
2022-08-23T04:56:54.106Z,16.88
2022-08-23T04:59:20.582Z,16.91
2022-08-23T05:01:46.916Z,16.95
2022-08-23T05:04:13.250Z,16.98
2022-08-23T05:06:40.936Z,17.01
2022-08-23T05:09:07.352Z,17.06
2022-08-23T05:11:33.832Z,17.12
2022-08-23T05:14:00.217Z,17.14
2022-08-23T05:16:26.552Z,17.20
2022-08-23T05:18:52.935Z,17.25
2022-08-23T05:21:20.255Z,17.30
2022-08-23T05:23:50.886Z,17.35
2022-08-23T05:26:21.223Z,17.37
2022-08-23T05:28:48.549Z,17.42
2022-08-23T05:31:16.127Z,17.45
2022-08-23T05:33:42.899Z,17.50
2022-08-23T05:36:10.312Z,17.54
2022-08-23T05:38:36.635Z,17.58
2022-08-23T05:41:05.375Z,17.62
2022-08-23T05:43:33.531Z,17.68
2022-08-23T05:46:01.671Z,17.74
2022-08-23T05:48:30.069Z,17.79
2022-08-23T05:50:56.383Z,17.85
2022-08-23T05:53:22.710Z,17.89
2022-08-23T05:55:49.043Z,17.94
2022-08-23T05:58:16.696Z,17.96
2022-08-23T06:00:43.058Z,17.98
2022-08-23T06:03:09.390Z,18.00
2022-08-23T06:05:38.332Z,18.03
2022-08-23T06:08:04.659Z,18.07
2022-08-23T06:10:30.966Z,18.12
2022-08-23T06:12:57.254Z,18.15
2022-08-23T06:15:24.929Z,18.16
2022-08-23T06:17:51.235Z,18.18
2022-08-23T06:20:17.665Z,18.18
2022-08-23T06:22:44.135Z,18.19
2022-08-23T06:25:10.454Z,18.18
2022-08-23T06:27:36.781Z,18.17
2022-08-23T06:30:03.208Z,18.17
2022-08-23T06:32:30.949Z,18.21
2022-08-23T06:35:33.115Z,18.28
2022-08-23T06:37:43.610Z,18.33
2022-08-23T06:40:10.242Z,18.42
2022-08-23T06:42:38.984Z,18.52
2022-08-23T06:45:05.960Z,18.64
2022-08-23T06:47:33.604Z,18.74
2022-08-23T06:49:59.910Z,18.84
2022-08-23T06:52:26.711Z,18.90
2022-08-23T06:54:53.255Z,18.96
2022-08-23T06:57:19.670Z,19.01
2022-08-23T06:59:45.986Z,19.09
2022-08-23T07:02:12.875Z,19.17
2022-08-23T07:04:41.058Z,19.27
2022-08-23T07:07:11.354Z,19.38
2022-08-23T07:09:38.116Z,19.48
2022-08-23T07:12:04.544Z,19.52
2022-08-23T07:14:30.936Z,19.54
2022-08-23T07:16:58.654Z,19.56
2022-08-23T07:19:29.271Z,19.58
2022-08-23T07:21:57.494Z,19.59
2022-08-23T07:24:23.966Z,19.58
2022-08-23T07:26:50.805Z,19.56
2022-08-23T07:29:17.174Z,19.52
2022-08-23T07:31:44.945Z,19.48
2022-08-23T07:34:11.295Z,19.46
2022-08-23T07:36:39.675Z,19.43
2022-08-23T07:39:07.799Z,19.46
2022-08-23T07:41:35.243Z,19.47
2022-08-23T07:44:02.868Z,19.50
2022-08-23T07:46:29.980Z,19.53
2022-08-23T07:48:56.979Z,19.57
2022-08-23T07:51:23.511Z,19.62
2022-08-23T07:53:49.844Z,19.69
2022-08-23T07:56:18.286Z,19.76
2022-08-23T07:58:44.671Z,19.83
2022-08-23T08:01:12.332Z,19.93
2022-08-23T08:03:38.987Z,20.02
2022-08-23T08:06:06.824Z,20.11
2022-08-23T08:08:33.180Z,20.20
2022-08-23T08:10:59.499Z,20.31
2022-08-23T08:13:27.201Z,20.44
2022-08-23T08:15:53.565Z,20.59
2022-08-23T08:18:19.891Z,20.76
2022-08-23T08:20:46.227Z,20.92
2022-08-23T08:23:12.544Z,21.11
2022-08-23T08:25:38.851Z,21.29
2022-08-23T08:28:05.201Z,21.46
2022-08-23T08:30:32.860Z,21.61
2022-08-23T08:32:59.329Z,21.80
2022-08-23T08:35:25.715Z,21.96
2022-08-23T08:37:52.162Z,22.08
2022-08-23T08:40:24.648Z,22.17
2022-08-23T08:42:59.678Z,22.26
2022-08-23T08:45:27.280Z,22.32
2022-08-23T08:47:59.108Z,22.39
2022-08-23T08:50:26.759Z,22.48
2022-08-23T08:52:56.827Z,22.57
2022-08-23T08:55:25.070Z,22.64
2022-08-23T08:57:52.066Z,22.70
2022-08-23T09:00:20.198Z,22.81
2022-08-23T09:02:46.539Z,22.88
2022-08-23T09:05:15.297Z,22.96
2022-08-23T09:07:46.611Z,23.01
2022-08-23T09:10:21.097Z,23.03
2022-08-23T09:12:51.075Z,23.09
2022-08-23T09:15:24.903Z,23.19
2022-08-23T09:17:52.611Z,23.40
2022-08-23T09:20:21.655Z,23.59
2022-08-23T09:22:49.369Z,23.81
2022-08-23T09:25:15.686Z,23.99
2022-08-23T09:27:42.785Z,24.09
2022-08-23T09:30:10.486Z,24.12
2022-08-23T09:32:37.826Z,24.17
2022-08-23T09:35:12.286Z,24.27
2022-08-23T09:37:48.327Z,24.45
2022-08-23T09:40:16.439Z,24.61
2022-08-23T09:42:43.282Z,24.74
2022-08-23T09:45:26.599Z,24.88
2022-08-23T09:47:53.083Z,25.00
2022-08-23T09:50:23.925Z,25.12
2022-08-23T09:52:54.704Z,25.22
2022-08-23T09:55:26.404Z,25.36
2022-08-23T09:57:53.063Z,25.47
2022-08-23T10:00:22.466Z,25.56
2022-08-23T10:02:48.849Z,25.70
2022-08-23T10:05:17.611Z,25.74
2022-08-23T10:07:44.918Z,25.84
2022-08-23T10:10:17.391Z,25.91
2022-08-23T10:12:43.711Z,25.95
2022-08-23T10:15:10.272Z,25.99
2022-08-23T10:17:39.932Z,26.07
2022-08-23T10:20:15.414Z,26.15
2022-08-23T10:22:43.699Z,26.24
2022-08-23T10:25:13.503Z,26.32
2022-08-23T10:27:44.859Z,26.41
2022-08-23T10:30:12.397Z,26.47
2022-08-23T10:32:45.337Z,26.46
2022-08-23T10:35:29.381Z,26.37
2022-08-23T10:38:03.583Z,26.43
2022-08-23T10:40:34.008Z,26.59
2022-08-23T10:43:08.167Z,26.71
2022-08-23T10:45:36.220Z,26.77
2022-08-23T10:48:14.191Z,26.88
2022-08-23T10:50:43.151Z,27.00
2022-08-23T10:53:11.910Z,27.09
2022-08-23T10:55:40.234Z,27.13
2022-08-23T10:58:11.356Z,27.23
2022-08-23T11:00:37.703Z,27.35
2022-08-23T11:03:10.495Z,27.37
2022-08-23T11:05:37.433Z,27.13
2022-08-23T11:08:05.251Z,27.17
2022-08-23T11:10:33.107Z,27.14
2022-08-23T11:13:01.538Z,27.19
2022-08-23T11:15:32.326Z,27.36
2022-08-23T11:18:00.848Z,27.49
2022-08-23T11:20:45.909Z,27.58
2022-08-23T11:23:13.674Z,27.58
2022-08-23T11:25:41.676Z,27.59
2022-08-23T11:28:22.903Z,27.46
2022-08-23T11:30:51.447Z,27.45
2022-08-23T11:33:21.260Z,27.60
2022-08-23T11:35:48.841Z,27.73
2022-08-23T11:38:22.424Z,27.81
2022-08-23T11:40:56.707Z,27.84
2022-08-23T11:43:25.370Z,27.94
2022-08-23T11:45:53.078Z,28.10
2022-08-23T11:48:23.048Z,28.32
2022-08-23T11:51:07.376Z,28.63
2022-08-23T11:53:49.970Z,28.96
2022-08-23T11:56:26.634Z,29.28
2022-08-23T11:59:03.515Z,29.48
2022-08-23T12:01:37.535Z,29.64
2022-08-23T12:04:05.348Z,29.84
2022-08-23T12:06:43.379Z,30.00
2022-08-23T12:09:35.616Z,30.08
2022-08-23T12:12:24.801Z,29.85
2022-08-23T12:14:53.510Z,29.63
2022-08-23T12:17:40.361Z,29.57
2022-08-23T12:20:16.792Z,29.37
2022-08-23T12:22:55.226Z,29.11
2022-08-23T12:25:22.006Z,29.01
2022-08-23T12:27:50.001Z,28.93
2022-08-23T12:30:18.328Z,28.75
2022-08-23T12:32:49.743Z,28.42
2022-08-23T12:35:27.912Z,28.27
2022-08-23T12:37:59.566Z,28.15
2022-08-23T12:40:27.894Z,28.17
2022-08-23T12:43:02.298Z,28.38
2022-08-23T12:45:35.793Z,28.54
2022-08-23T12:48:02.490Z,28.46
2022-08-23T12:50:32.581Z,28.38
2022-08-23T12:53:00.788Z,28.28
2022-08-23T12:55:30.254Z,28.16
2022-08-23T12:57:56.596Z,28.03
2022-08-23T13:00:24.620Z,28.09
2022-08-23T13:02:55.296Z,28.06
2022-08-23T13:05:26.982Z,28.01
2022-08-23T13:07:54.671Z,28.02
2022-08-23T13:10:21.126Z,28.19
2022-08-23T13:12:47.611Z,28.36
2022-08-23T13:15:31.789Z,28.41
2022-08-23T13:17:59.338Z,28.40
2022-08-23T13:20:25.764Z,28.37
2022-08-23T13:22:58.921Z,28.35
2022-08-23T13:25:29.839Z,28.28
2022-08-23T13:27:58.777Z,28.29
2022-08-23T13:30:25.865Z,28.31
2022-08-23T13:32:53.096Z,28.32
2022-08-23T13:35:29.418Z,28.29
2022-08-23T13:37:59.525Z,28.23
2022-08-23T13:40:27.480Z,28.20
2022-08-23T13:42:57.165Z,28.16
2022-08-23T13:45:25.751Z,28.12
2022-08-23T13:47:55.327Z,28.15
2022-08-23T13:50:23.055Z,28.20
2022-08-23T13:53:13.410Z,28.24
2022-08-23T13:55:41.238Z,28.25
2022-08-23T13:58:09.897Z,28.29
2022-08-23T14:00:36.514Z,28.28
2022-08-23T14:03:03.180Z,28.21
2022-08-23T14:05:29.641Z,28.18
2022-08-23T14:07:59.903Z,28.12
2022-08-23T14:10:26.986Z,28.07
2022-08-23T14:12:54.679Z,28.05
2022-08-23T14:15:54.238Z,28.07
2022-08-23T14:18:08.043Z,28.14
2022-08-23T14:20:44.034Z,28.18
2022-08-23T14:23:12.643Z,28.23
2022-08-23T14:25:39.120Z,28.28
2022-08-23T14:28:06.836Z,28.45
2022-08-23T14:30:34.468Z,28.50
2022-08-23T14:33:01.278Z,28.55
2022-08-23T14:35:27.786Z,28.56
2022-08-23T14:38:09.377Z,28.56
2022-08-23T14:40:36.148Z,28.63
2022-08-23T14:43:04.226Z,28.65
2022-08-23T14:45:32.453Z,28.60
2022-08-23T14:47:58.851Z,28.58
2022-08-23T14:50:25.204Z,28.42
2022-08-23T14:52:54.252Z,28.33
2022-08-23T14:55:24.719Z,28.33
2022-08-23T14:57:51.370Z,28.34
2022-08-23T15:00:17.787Z,28.31
2022-08-23T15:02:46.651Z,28.33
2022-08-23T15:05:13.347Z,28.27
2022-08-23T15:07:39.670Z,28.25
2022-08-23T15:10:07.142Z,28.28
2022-08-23T15:15:21.967Z,28.58
2022-08-23T15:17:51.896Z,28.56
2022-08-23T15:20:18.836Z,28.54
2022-08-23T15:22:52.368Z,28.54
2022-08-23T15:25:22.618Z,28.53
2022-08-23T15:27:50.211Z,28.53
2022-08-23T15:30:16.959Z,28.49
2022-08-23T15:32:52.099Z,28.47
2022-08-23T15:35:20.958Z,28.43
2022-08-23T15:37:47.595Z,28.41
2022-08-23T15:40:14.171Z,28.43
2022-08-23T15:42:40.631Z,28.47
2022-08-23T15:45:07.628Z,28.50
2022-08-23T15:47:40.573Z,28.46
2022-08-23T15:50:07.291Z,28.37
2022-08-23T15:52:34.930Z,28.45
2022-08-23T15:55:01.299Z,28.42
2022-08-23T15:57:28.264Z,28.45
2022-08-23T15:59:54.783Z,28.41
2022-08-23T16:02:21.115Z,28.37
2022-08-23T16:04:47.464Z,28.31
2022-08-23T16:07:15.785Z,28.27
2022-08-23T16:09:43.746Z,28.20
2022-08-23T16:12:10.051Z,28.15
2022-08-23T16:14:36.611Z,28.06
2022-08-23T16:17:03.280Z,27.99
2022-08-23T16:19:29.691Z,27.94
2022-08-23T16:21:56.027Z,27.90
2022-08-23T16:24:24.554Z,27.83
2022-08-23T16:26:52.508Z,27.86
2022-08-23T16:29:19.643Z,27.82
2022-08-23T16:31:46.467Z,27.86
2022-08-23T16:34:14.941Z,27.80
2022-08-23T16:36:43.511Z,27.86
2022-08-23T16:39:10.311Z,28.02
2022-08-23T16:41:36.625Z,28.02
2022-08-23T16:44:04.804Z,27.97
2022-08-23T16:46:31.162Z,27.88
2022-08-23T16:48:57.531Z,27.81
2022-08-23T16:51:24.121Z,27.76
2022-08-23T16:54:00.579Z,27.70
2022-08-23T16:56:29.683Z,27.71
2022-08-23T16:58:56.011Z,27.69
2022-08-23T17:01:23.859Z,27.71
2022-08-23T17:03:50.308Z,27.63
2022-08-23T17:06:16.630Z,27.53
2022-08-23T17:08:42.939Z,27.47
2022-08-23T17:11:10.554Z,27.43
2022-08-23T17:13:36.898Z,27.38
2022-08-23T17:16:03.473Z,27.32
2022-08-23T17:18:31.147Z,27.28
2022-08-23T17:20:57.500Z,27.24
2022-08-23T17:23:23.844Z,27.21
2022-08-23T17:25:50.188Z,27.20
2022-08-23T17:28:17.216Z,27.18
2022-08-23T17:30:43.784Z,27.18
2022-08-23T17:33:10.086Z,27.17
2022-08-23T17:35:37.770Z,27.15
2022-08-23T17:38:05.320Z,27.13
2022-08-23T17:40:33.488Z,27.10
2022-08-23T17:43:00.253Z,27.07
2022-08-23T17:45:27.400Z,27.04
2022-08-23T17:47:53.959Z,27.01
2022-08-23T17:50:20.849Z,26.96
2022-08-23T17:52:48.500Z,27.00
2022-08-23T17:55:14.874Z,27.31
2022-08-23T17:57:41.184Z,27.72
2022-08-23T18:00:07.975Z,27.79
2022-08-23T18:02:34.332Z,27.70
2022-08-23T18:05:00.684Z,27.52
2022-08-23T18:07:27.162Z,27.33
2022-08-23T18:09:54.815Z,27.19
2022-08-23T18:12:21.159Z,27.07
2022-08-23T18:14:47.575Z,26.95
2022-08-23T18:17:13.902Z,26.81
2022-08-23T18:19:40.241Z,26.72
2022-08-23T18:22:06.591Z,26.64
2022-08-23T18:24:32.920Z,26.54
2022-08-23T18:27:00.701Z,26.45
2022-08-23T18:29:27.558Z,26.34
2022-08-23T18:31:53.963Z,26.21
2022-08-23T18:34:20.767Z,26.10
2022-08-23T18:36:47.139Z,25.96
2022-08-23T18:39:14.225Z,25.85
2022-08-23T18:41:40.948Z,25.74
2022-08-23T18:44:09.011Z,25.62
2022-08-23T18:46:38.911Z,25.52
2022-08-23T18:49:06.266Z,25.40
2022-08-23T18:51:32.583Z,25.25
2022-08-23T18:53:59.378Z,25.13
2022-08-23T18:56:25.690Z,25.05
2022-08-23T18:58:52.323Z,24.93
2022-08-23T19:01:24.267Z,24.84
2022-08-23T19:03:51.098Z,24.73
2022-08-23T19:06:17.539Z,24.63
2022-08-23T19:08:43.897Z,24.55
2022-08-23T19:11:10.572Z,24.46
2022-08-23T19:13:37.010Z,24.40
2022-08-23T19:16:03.541Z,24.33
2022-08-23T19:18:31.234Z,24.24
2022-08-23T19:20:57.542Z,24.14
2022-08-23T19:23:23.863Z,24.04
2022-08-23T19:25:50.226Z,23.95
2022-08-23T19:28:16.563Z,23.88
2022-08-23T19:30:43.003Z,23.82
2022-08-23T19:33:09.348Z,23.76
2022-08-23T19:35:37.033Z,23.71
2022-08-23T19:38:03.379Z,23.63
2022-08-23T19:40:29.804Z,23.55
2022-08-23T19:42:56.149Z,23.50
2022-08-23T19:45:22.497Z,23.45
2022-08-23T19:47:48.859Z,23.40
2022-08-23T19:50:15.179Z,23.35
2022-08-23T19:52:51.590Z,23.28
2022-08-23T19:55:18.018Z,23.22
2022-08-23T19:57:44.347Z,23.16
2022-08-23T20:00:15.706Z,23.10
2022-08-23T20:02:44.983Z,23.01
2022-08-23T20:05:11.283Z,22.93
2022-08-23T20:07:37.670Z,22.86
2022-08-23T20:10:06.724Z,22.82
2022-08-23T20:12:33.123Z,22.79
2022-08-23T20:14:59.439Z,22.75
2022-08-23T20:17:25.906Z,22.72
2022-08-23T20:19:52.371Z,22.67
2022-08-23T20:22:18.904Z,22.61
2022-08-23T20:24:53.349Z,22.57
2022-08-23T20:27:30.271Z,22.50
2022-08-23T20:29:57.687Z,22.44
2022-08-23T20:32:24.091Z,22.40
2022-08-23T20:34:50.426Z,22.37
2022-08-23T20:37:16.755Z,22.33
2022-08-23T20:39:43.127Z,22.28
2022-08-23T20:42:09.625Z,22.23
2022-08-23T20:44:37.350Z,22.21
2022-08-23T20:47:03.851Z,22.20
2022-08-23T20:49:30.276Z,22.27
2022-08-23T20:51:56.610Z,22.26
2022-08-23T20:54:22.976Z,22.26
2022-08-23T20:56:50.199Z,22.24
2022-08-23T20:59:16.529Z,22.21
2022-08-23T21:01:44.356Z,22.16
2022-08-23T21:04:10.739Z,22.14
2022-08-23T21:06:38.235Z,22.14
2022-08-23T21:09:04.642Z,22.19
2022-08-23T21:11:30.949Z,22.23
2022-08-23T21:13:57.331Z,22.20
2022-08-23T21:16:23.931Z,22.17
2022-08-23T21:18:51.590Z,22.12
2022-08-23T21:21:21.754Z,22.05
2022-08-23T21:23:48.356Z,22.01
2022-08-23T21:26:14.678Z,21.97
2022-08-23T21:28:41.171Z,21.96
2022-08-23T21:31:07.867Z,21.91
2022-08-23T21:33:39.305Z,21.85
2022-08-23T21:36:08.471Z,21.79
2022-08-23T21:38:34.915Z,21.75
2022-08-23T21:41:02.976Z,21.74
2022-08-23T21:43:29.670Z,21.75
2022-08-23T21:45:56.039Z,21.71
2022-08-23T21:48:22.910Z,21.63
2022-08-23T21:50:49.223Z,21.57
2022-08-23T21:53:17.328Z,21.54
2022-08-23T21:55:44.046Z,21.54
2022-08-23T21:58:12.527Z,21.56
2022-08-23T22:00:39.559Z,21.57
2022-08-23T22:03:06.178Z,21.55
2022-08-23T22:05:32.702Z,21.52
2022-08-23T22:07:59.002Z,21.46
2022-08-23T22:10:26.643Z,21.39
2022-08-23T22:12:52.974Z,21.33
2022-08-23T22:15:19.282Z,21.29
2022-08-23T22:17:45.595Z,21.24
2022-08-23T22:20:11.911Z,21.19
2022-08-23T22:22:38.310Z,21.14
2022-08-23T22:25:05.152Z,21.11
2022-08-23T22:27:32.819Z,21.07
2022-08-23T22:29:59.143Z,21.03
2022-08-23T22:32:25.470Z,20.96
2022-08-23T22:34:51.776Z,20.87
2022-08-23T22:37:18.095Z,20.81
2022-08-23T22:39:44.419Z,20.76
2022-08-23T22:42:10.782Z,20.71
2022-08-23T22:44:38.418Z,20.67
2022-08-23T22:47:04.902Z,20.64
2022-08-23T22:49:31.229Z,20.63
2022-08-23T22:51:57.566Z,20.59
2022-08-23T22:54:23.929Z,20.55
2022-08-23T22:56:51.042Z,20.50
2022-08-23T22:59:18.146Z,20.46
2022-08-23T23:01:47.718Z,20.43
2022-08-23T23:04:14.682Z,20.38
2022-08-23T23:06:41.070Z,20.37
2022-08-23T23:09:08.242Z,20.32
2022-08-23T23:11:34.997Z,20.33
2022-08-23T23:14:01.578Z,20.32
2022-08-23T23:16:28.731Z,20.30
2022-08-23T23:18:56.944Z,20.28
2022-08-23T23:21:23.259Z,20.25
2022-08-23T23:23:49.580Z,20.19
2022-08-23T23:26:15.883Z,20.15
2022-08-23T23:28:42.198Z,20.10
2022-08-23T23:31:08.935Z,20.07
2022-08-23T23:33:35.258Z,20.04
2022-08-23T23:36:03.285Z,20.04
2022-08-23T23:38:29.623Z,20.04
2022-08-23T23:40:55.927Z,20.01
2022-08-23T23:43:22.231Z,20.02
2022-08-23T23:45:48.585Z,20.03
2022-08-23T23:48:15.017Z,20.05
2022-08-23T23:50:45.335Z,20.09
2022-08-23T23:53:14.566Z,20.07
2022-08-23T23:55:41.026Z,19.97
2022-08-23T23:58:07.339Z,19.90
